Time;durP1;ratioP1;P1;durP2;ratioP2;P2;SDS_P1;SDS_P2;PMS_P1;PMS_P2;Temp;Humidity;BMP_temperature;BMP_pressure;BME280_temperature;BME280_humidity;BME280_pressure;Samples;Min_cycle;Max_cycle;Signal;HPM_P1;HPM_P2
2022/01/09 00:01:33;;;;;;;7.63;2.55;;;24.90;99.90;;;;;;5087042;28;20413;-85
2022/01/09 00:04:00;;;;;;;9.00;2.50;;;25.00;99.90;;;;;;5087641;28;20448;-84
2022/01/09 00:06:27;;;;;;;10.07;2.78;;;25.10;99.90;;;;;;5086861;28;20384;-82
2022/01/09 00:08:54;;;;;;;9.60;3.05;;;25.10;99.90;;;;;;5088416;28;20513;-83
2022/01/09 00:11:26;;;;;;;9.13;3.15;;;24.70;99.90;;;;;;5086070;28;20385;-84
2022/01/09 00:13:54;;;;;;;8.80;2.50;;;24.60;99.90;;;;;;5087727;28;20399;-83
2022/01/09 00:16:21;;;;;;;8.25;2.67;;;24.70;99.90;;;;;;5087277;28;20418;-83
2022/01/09 00:18:49;;;;;;;7.05;2.70;;;24.80;99.90;;;;;;5087464;28;20485;-83
2022/01/09 00:21:17;;;;;;;8.25;2.80;;;25.00;99.90;;;;;;5086830;28;20392;-83
2022/01/09 00:23:45;;;;;;;9.52;3.60;;;25.00;99.90;;;;;;5088010;28;20381;-83
2022/01/09 00:26:12;;;;;;;9.50;3.00;;;25.00;99.90;;;;;;5086908;28;20384;-83
2022/01/09 00:28:39;;;;;;;8.23;3.20;;;25.10;99.90;;;;;;5086918;28;20388;-83
2022/01/09 00:31:06;;;;;;;8.00;2.97;;;25.00;99.90;;;;;;5087258;28;20395;-82
2022/01/09 00:33:33;;;;;;;6.93;2.50;;;25.10;99.90;;;;;;5087318;28;20376;-83
2022/01/09 00:36:00;;;;;;;7.60;2.78;;;25.10;99.90;;;;;;5086678;28;20383;-82
2022/01/09 00:38:27;;;;;;;9.57;2.90;;;25.30;99.90;;;;;;5086942;28;20404;-82
2022/01/09 00:40:54;;;;;;;8.93;2.70;;;25.30;99.90;;;;;;5087787;28;20443;-82
2022/01/09 00:43:21;;;;;;;8.90;2.70;;;25.40;99.90;;;;;;5087199;28;20380;-83
2022/01/09 00:45:48;;;;;;;7.55;2.85;;;25.30;99.90;;;;;;5071071;28;20388;-83
2022/01/09 00:48:15;;;;;;;8.07;2.50;;;25.20;99.90;;;;;;5087202;28;20913;-82
2022/01/09 00:50:43;;;;;;;9.48;2.50;;;25.00;99.90;;;;;;5086708;28;20388;-82
2022/01/09 00:53:10;;;;;;;5.68;2.33;;;25.10;99.90;;;;;;5086421;28;20377;-82
2022/01/09 00:55:37;;;;;;;8.13;2.55;;;25.20;99.90;;;;;;5087034;28;20911;-82
2022/01/09 00:58:04;;;;;;;6.85;2.22;;;25.30;99.90;;;;;;5085804;28;20843;-83
2022/01/09 01:00:35;;;;;;;9.88;2.70;;;25.30;99.90;;;;;;5084282;28;20759;-82
2022/01/09 01:03:02;;;;;;;7.88;2.30;;;25.30;99.90;;;;;;5086827;28;20372;-83
2022/01/09 01:05:29;;;;;;;6.97;2.58;;;25.20;99.90;;;;;;5085286;28;20950;-83
2022/01/09 01:07:56;;;;;;;9.13;2.65;;;25.20;99.90;;;;;;5087322;28;20376;-82
2022/01/09 01:10:23;;;;;;;11.18;2.53;;;25.10;99.90;;;;;;5086630;28;20384;-83
2022/01/09 01:12:50;;;;;;;7.45;2.50;;;24.80;99.90;;;;;;5086621;28;20391;-82
2022/01/09 01:15:17;;;;;;;9.40;2.63;;;24.80;99.90;;;;;;5086364;28;20384;-83
2022/01/09 01:17:45;;;;;;;8.77;2.70;;;24.70;99.90;;;;;;5087056;28;20408;-83
2022/01/09 01:20:12;;;;;;;7.10;2.53;;;24.50;99.90;;;;;;5086219;28;20399;-83
2022/01/09 01:22:41;;;;;;;6.45;2.60;;;24.50;99.90;;;;;;5086941;28;20705;-83
2022/01/09 01:25:09;;;;;;;9.48;2.58;;;24.40;99.90;;;;;;5086239;28;20392;-83
2022/01/09 01:27:36;;;;;;;9.77;2.80;;;24.40;99.90;;;;;;5085726;28;20387;-83
2022/01/09 01:30:04;;;;;;;11.45;3.10;;;24.50;99.90;;;;;;5092820;28;20378;-83
2022/01/09 01:32:31;;;;;;;7.10;2.67;;;24.50;99.90;;;;;;5086335;28;20388;-83
2022/01/09 01:34:58;;;;;;;10.07;2.90;;;24.50;99.90;;;;;;5086152;28;20385;-83
2022/01/09 01:37:25;;;;;;;12.67;3.63;;;24.50;99.90;;;;;;5086705;28;20441;-83
2022/01/09 01:39:52;;;;;;;9.70;3.00;;;24.50;99.90;;;;;;5086447;28;20889;-82
2022/01/09 01:42:19;;;;;;;10.50;3.10;;;24.60;99.90;;;;;;5086283;28;20537;-82
2022/01/09 01:44:49;;;;;;;11.07;3.50;;;24.60;99.90;;;;;;5086860;28;20379;-82
2022/01/09 01:47:21;;;;;;;8.18;3.28;;;24.70;99.90;;;;;;5086467;28;20956;-82
2022/01/09 01:49:49;;;;;;;7.90;2.60;;;24.80;99.90;;;;;;5085563;28;20455;-82
2022/01/09 01:52:21;;;;;;;9.45;3.20;;;24.80;99.90;;;;;;5086303;28;20728;-82
2022/01/09 01:54:48;;;;;;;8.90;2.90;;;24.90;99.90;;;;;;5086463;28;20364;-81
2022/01/09 01:57:15;;;;;;;8.35;3.00;;;24.90;99.90;;;;;;5086435;28;20438;-82
2022/01/09 01:59:42;;;;;;;9.93;3.10;;;24.90;99.90;;;;;;5086277;28;20396;-82
2022/01/09 02:02:09;;;;;;;7.93;2.63;;;25.00;99.90;;;;;;5085627;28;20473;-82
2022/01/09 02:04:37;;;;;;;11.45;2.97;;;25.00;99.90;;;;;;5085984;28;20379;-81
2022/01/09 02:07:05;;;;;;;7.53;2.90;;;25.10;99.90;;;;;;5086504;28;20457;-84
2022/01/09 02:09:33;;;;;;;9.48;3.10;;;25.20;99.90;;;;;;5100815;28;20461;-92
2022/01/09 02:12:00;;;;;;;10.65;4.10;;;25.20;99.90;;;;;;5070887;28;20431;-91
2022/01/09 02:14:27;;;;;;;12.57;5.70;;;25.20;99.90;;;;;;5067942;28;20721;-94
2022/01/09 02:16:54;;;;;;;10.33;4.70;;;25.20;99.90;;;;;;5074979;28;20385;-95
2022/01/09 02:19:22;;;;;;;11.17;3.20;;;25.20;99.90;;;;;;5072079;28;20408;-91
2022/01/09 02:21:49;;;;;;;8.27;3.28;;;25.20;99.90;;;;;;5073108;28;20726;-88
2022/01/09 02:24:18;;;;;;;10.77;2.83;;;25.20;99.90;;;;;;5072077;28;20386;-92
2022/01/09 02:26:45;;;;;;;8.23;2.42;;;25.20;99.90;;;;;;5073651;28;20408;-94
2022/01/09 02:29:12;;;;;;;8.77;2.60;;;25.10;99.90;;;;;;5073063;28;20380;-90
2022/01/09 02:31:40;;;;;;;10.15;3.05;;;24.90;99.90;;;;;;5073404;28;20408;-94
2022/01/09 02:34:07;;;;;;;11.68;3.08;;;24.90;99.90;;;;;;5071717;28;20375;-92
2022/01/09 02:36:34;;;;;;;8.68;2.60;;;24.80;99.90;;;;;;5071493;28;20389;-93
2022/01/09 02:39:01;;;;;;;6.78;2.60;;;24.80;99.90;;;;;;5071499;28;20486;-92
2022/01/09 02:41:28;;;;;;;11.65;2.67;;;24.90;99.90;;;;;;5071014;28;20378;-92
2022/01/09 02:43:55;;;;;;;11.75;2.92;;;25.00;99.90;;;;;;5071279;28;20393;-93
2022/01/09 02:46:38;;;;;;;9.48;2.70;;;25.00;99.90;;;;;;5071194;28;20370;-91
2022/01/09 02:49:08;;;;;;;11.75;2.70;;;24.90;99.90;;;;;;5069659;28;20389;-91
2022/01/09 02:51:45;;;;;;;7.75;2.72;;;24.90;99.90;;;;;;5070796;28;20456;-93
2022/01/09 02:57:02;;;;;;;8.83;2.60;;;24.80;99.90;;;;;;5060110;28;20776;-90
2022/01/09 02:59:29;;;;;;;9.60;2.70;;;24.80;99.90;;;;;;5070594;28;20406;-88
2022/01/09 03:01:56;;;;;;;9.53;2.70;;;24.90;99.90;;;;;;5070856;28;20869;-93
2022/01/09 03:04:23;;;;;;;8.68;2.55;;;25.00;99.90;;;;;;5070274;28;20378;-94
2022/01/09 03:06:50;;;;;;;8.88;2.53;;;25.10;99.90;;;;;;5070569;28;20404;-92
2022/01/09 03:09:18;;;;;;;9.10;2.70;;;25.20;99.90;;;;;;5088138;28;20388;-87
2022/01/09 03:11:47;;;;;;;8.23;2.55;;;25.30;99.90;;;;;;5089192;28;20962;-88
2022/01/09 03:14:14;;;;;;;10.60;2.70;;;25.50;99.90;;;;;;5089165;28;20388;-85
2022/01/09 03:16:41;;;;;;;8.48;2.70;;;25.70;99.90;;;;;;5089502;28;20445;-84
2022/01/09 03:19:08;;;;;;;7.03;2.70;;;25.80;99.90;;;;;;5088659;28;20936;-88
2022/01/09 03:21:35;;;;;;;8.75;2.60;;;26.00;99.90;;;;;;5088856;28;20387;-85
2022/01/09 03:24:02;;;;;;;8.00;2.70;;;26.20;99.90;;;;;;5089748;28;20373;-90
2022/01/09 03:26:29;;;;;;;8.60;2.75;;;26.30;99.90;;;;;;5089260;28;20405;-91
2022/01/09 03:28:56;;;;;;;8.88;2.83;;;26.30;99.90;;;;;;5089828;28;20389;-90
2022/01/09 03:31:23;;;;;;;8.52;2.70;;;26.10;99.90;;;;;;5089618;28;20734;-89
2022/01/09 03:33:50;;;;;;;9.38;2.85;;;25.90;99.90;;;;;;5089868;28;20867;-89
2022/01/09 03:36:17;;;;;;;8.97;2.67;;;25.70;99.90;;;;;;5089410;28;20938;-89
2022/01/09 03:38:44;;;;;;;7.57;2.40;;;25.60;99.90;;;;;;5087757;28;20408;-90
2022/01/09 03:41:11;;;;;;;8.15;2.45;;;25.60;99.90;;;;;;5089425;28;20721;-90
2022/01/09 03:43:38;;;;;;;7.97;2.40;;;25.60;99.90;;;;;;5087917;28;20449;-89
2022/01/09 03:46:05;;;;;;;7.43;2.42;;;25.60;99.90;;;;;;5089345;28;20725;-90
2022/01/09 03:48:32;;;;;;;9.73;2.80;;;25.60;99.90;;;;;;5087881;28;20759;-89
2022/01/09 03:51:01;;;;;;;9.77;2.72;;;25.50;99.90;;;;;;5088815;28;20373;-91
2022/01/09 03:53:30;;;;;;;7.20;2.47;;;25.50;99.90;;;;;;5088982;28;20384;-89
2022/01/09 03:55:58;;;;;;;7.90;2.60;;;25.60;99.90;;;;;;5088976;28;20932;-90
2022/01/09 03:58:25;;;;;;;10.00;2.67;;;25.70;99.90;;;;;;5088915;28;20465;-90
2022/01/09 04:00:52;;;;;;;11.05;2.45;;;25.90;99.90;;;;;;5088969;28;20416;-87
2022/01/09 04:03:19;;;;;;;7.88;2.60;;;26.10;99.90;;;;;;5088670;28;20756;-89
2022/01/09 04:05:46;;;;;;;8.93;2.97;;;26.30;99.90;;;;;;5087231;28;20461;-83
2022/01/09 04:08:12;;;;;;;6.97;2.70;;;26.50;99.90;;;;;;5088505;28;20895;-86
2022/01/09 04:10:42;;;;;;;8.30;2.70;;;26.70;99.90;;;;;;5087284;28;20467;-84
2022/01/09 04:13:12;;;;;;;8.25;2.60;;;27.00;99.90;;;;;;5087744;28;20455;-83
2022/01/09 04:15:45;;;;;;;10.35;2.85;;;26.90;99.90;;;;;;5087790;28;20789;-85
2022/01/09 04:18:15;;;;;;;10.40;2.80;;;26.80;99.90;;;;;;5087879;28;20393;-82
2022/01/09 04:20:42;;;;;;;7.85;2.53;;;26.70;99.90;;;;;;5087940;28;20449;-83
2022/01/09 04:23:11;;;;;;;7.63;2.60;;;26.80;99.90;;;;;;5087717;28;20383;-83
2022/01/09 04:25:39;;;;;;;9.40;2.58;;;27.00;99.90;;;;;;5087707;28;20459;-80
2022/01/09 04:28:07;;;;;;;9.63;2.40;;;27.20;99.90;;;;;;5087635;28;20380;-85
2022/01/09 04:30:34;;;;;;;8.52;2.78;;;27.30;99.90;;;;;;5087612;28;20757;-83
2022/01/09 04:33:01;;;;;;;9.63;2.80;;;27.40;99.90;;;;;;5087435;28;20843;-80
2022/01/09 04:35:28;;;;;;;8.30;2.43;;;27.50;99.90;;;;;;5087852;28;20395;-82
2022/01/09 04:37:55;;;;;;;6.47;2.15;;;27.90;99.90;;;;;;5086522;28;20911;-82
2022/01/09 04:40:22;;;;;;;7.68;2.55;;;28.50;99.90;;;;;;5086523;28;20725;-84
2022/01/09 04:42:57;;;;;;;8.70;2.53;;;29.10;98.90;;;;;;5087176;28;20376;-84
2022/01/09 04:45:26;;;;;;;7.35;2.30;;;29.30;97.80;;;;;;5087826;28;20876;-87
2022/01/09 04:47:55;;;;;;;6.45;2.22;;;29.50;97.00;;;;;;5087404;28;20468;-82
2022/01/09 04:50:25;;;;;;;6.38;2.28;;;29.60;95.40;;;;;;5087179;28;20384;-78
2022/01/09 04:52:59;;;;;;;6.25;2.08;;;29.50;94.60;;;;;;5067190;28;20389;-85
2022/01/09 04:55:27;;;;;;;6.63;2.40;;;29.30;95.10;;;;;;5074684;28;20384;-83
2022/01/09 04:57:55;;;;;;;5.60;2.47;;;29.10;96.10;;;;;;5088178;28;20375;-86
2022/01/09 05:00:22;;;;;;;6.65;2.30;;;29.20;95.70;;;;;;5086329;28;20383;-76
2022/01/09 05:02:50;;;;;;;6.50;2.20;;;29.50;95.50;;;;;;5084791;28;20377;-82
2022/01/09 05:05:17;;;;;;;6.05;2.33;;;29.80;94.60;;;;;;5093309;28;20376;-76
2022/01/09 05:07:44;;;;;;;9.85;2.33;;;30.00;94.20;;;;;;5086965;28;20410;-77
2022/01/09 05:10:12;;;;;;;5.80;2.00;;;29.90;93.20;;;;;;5086261;28;20380;-84
2022/01/09 05:12:40;;;;;;;6.53;2.20;;;29.70;92.60;;;;;;5086677;28;20377;-82
2022/01/09 05:15:08;;;;;;;5.90;2.20;;;29.60;93.80;;;;;;5086527;28;20373;-76
2022/01/09 05:17:35;;;;;;;7.13;2.20;;;29.50;93.70;;;;;;5086858;28;20852;-79
2022/01/09 05:20:03;;;;;;;6.63;1.92;;;29.40;94.60;;;;;;5086810;28;20967;-76
2022/01/09 05:22:31;;;;;;;5.70;2.05;;;29.50;94.50;;;;;;5086613;28;20420;-82
2022/01/09 05:25:01;;;;;;;7.50;2.30;;;29.40;94.50;;;;;;5086204;28;20890;-85
2022/01/09 05:27:28;;;;;;;8.27;2.37;;;29.70;93.90;;;;;;5085757;28;20392;-84
2022/01/09 05:29:55;;;;;;;6.45;2.15;;;29.90;93.30;;;;;;5086218;28;20429;-76
2022/01/09 05:32:22;;;;;;;6.60;2.40;;;29.70;93.20;;;;;;5085721;28;20783;-78
2022/01/09 05:34:49;;;;;;;4.77;2.00;;;29.50;93.90;;;;;;5085191;28;20391;-83
2022/01/09 05:37:17;;;;;;;6.70;2.08;;;29.30;94.10;;;;;;5085672;28;20471;-82
2022/01/09 05:39:44;;;;;;;7.80;2.30;;;29.30;94.60;;;;;;5085669;28;20438;-75
2022/01/09 05:42:13;;;;;;;6.33;2.13;;;29.70;93.60;;;;;;5086179;28;20477;-80
2022/01/09 05:44:41;;;;;;;6.37;2.27;;;29.70;93.10;;;;;;5085998;28;20891;-81
2022/01/09 05:47:08;;;;;;;8.75;2.40;;;29.30;93.30;;;;;;5085762;28;20387;-76
2022/01/09 05:49:35;;;;;;;9.50;2.60;;;28.80;94.00;;;;;;5085900;28;20415;-83
2022/01/09 05:52:02;;;;;;;7.80;2.70;;;28.40;95.80;;;;;;5086355;28;20371;-77
2022/01/09 05:54:29;;;;;;;8.05;2.63;;;28.00;96.50;;;;;;5084057;28;20838;-78
2022/01/09 05:56:55;;;;;;;9.55;2.60;;;27.90;97.90;;;;;;5086250;28;20388;-89
2022/01/09 05:59:23;;;;;;;9.68;2.80;;;27.90;97.90;;;;;;5086511;28;20411;-84
2022/01/09 06:01:49;;;;;;;11.65;2.85;;;27.70;97.90;;;;;;5086020;28;20390;-86
2022/01/09 06:04:16;;;;;;;11.00;2.70;;;27.70;98.10;;;;;;5086430;28;20429;-83
2022/01/09 06:06:43;;;;;;;10.37;2.80;;;27.70;98.20;;;;;;5085852;28;20401;-82
2022/01/09 06:09:10;;;;;;;13.25;3.03;;;27.60;98.60;;;;;;5086593;28;20455;-81
2022/01/09 06:11:38;;;;;;;11.40;2.95;;;27.50;99.20;;;;;;5085531;28;20395;-79
2022/01/09 06:14:05;;;;;;;11.90;3.20;;;27.40;99.40;;;;;;5086107;28;20394;-79
2022/01/09 06:16:32;;;;;;;11.57;3.10;;;27.30;99.90;;;;;;5089366;28;20376;-84
2022/01/09 06:18:59;;;;;;;9.77;3.10;;;27.20;99.90;;;;;;5086370;28;20888;-85
2022/01/09 06:21:29;;;;;;;11.48;2.97;;;27.10;99.90;;;;;;5085818;28;20843;-81
2022/01/09 06:23:56;;;;;;;10.38;3.00;;;27.10;99.90;;;;;;5085987;28;20935;-83
2022/01/09 06:26:23;;;;;;;12.10;3.03;;;27.00;99.90;;;;;;5086399;28;20737;-80
2022/01/09 06:28:50;;;;;;;11.82;3.30;;;27.00;99.90;;;;;;5086178;28;20506;-83
2022/01/09 06:31:17;;;;;;;10.70;2.95;;;26.80;99.90;;;;;;5085898;28;20369;-75
2022/01/09 06:33:44;;;;;;;11.02;2.97;;;26.80;99.90;;;;;;5086201;28;20368;-76
2022/01/09 06:36:11;;;;;;;9.60;2.78;;;26.70;99.90;;;;;;5085686;28;20550;-76
2022/01/09 06:38:38;;;;;;;9.82;3.28;;;26.70;99.90;;;;;;5085199;28;20418;-76
2022/01/09 06:41:05;;;;;;;11.50;3.13;;;26.70;99.90;;;;;;5085926;28;20372;-80
2022/01/09 06:43:32;;;;;;;8.95;3.00;;;26.60;99.90;;;;;;5085974;28;20383;-79
2022/01/09 06:45:59;;;;;;;11.88;3.08;;;26.50;99.90;;;;;;5085931;28;20463;-79
2022/01/09 06:48:26;;;;;;;13.05;3.40;;;26.30;99.90;;;;;;5085941;28;20376;-84
2022/01/09 06:50:53;;;;;;;12.02;3.40;;;26.20;99.90;;;;;;5085638;28;20384;-81
2022/01/09 06:53:20;;;;;;;12.27;3.10;;;26.10;99.90;;;;;;5085659;28;21910;-83
2022/01/09 06:55:47;;;;;;;11.13;3.03;;;25.90;99.90;;;;;;5085926;28;20380;-83
2022/01/09 06:58:18;;;;;;;10.73;3.13;;;25.90;99.90;;;;;;5085291;28;20426;-86
2022/01/09 07:00:46;;;;;;;9.85;3.10;;;25.90;99.90;;;;;;5085934;28;20396;-77
2022/01/09 07:03:13;;;;;;;10.75;3.00;;;25.80;99.90;;;;;;5088490;28;20373;-77
2022/01/09 07:05:40;;;;;;;9.10;3.00;;;25.70;99.90;;;;;;5089778;28;20382;-81
2022/01/09 07:08:07;;;;;;;10.93;3.22;;;25.70;99.90;;;;;;5092104;28;20377;-82
2022/01/09 07:10:34;;;;;;;12.23;3.13;;;25.70;99.90;;;;;;5090183;28;20380;-76
2022/01/09 07:13:01;;;;;;;15.43;3.30;;;25.70;99.90;;;;;;5089098;28;20393;-80
2022/01/09 07:15:27;;;;;;;11.88;3.30;;;25.70;99.90;;;;;;5089476;28;20936;-82
2022/01/09 07:17:54;;;;;;;9.48;2.90;;;25.70;99.90;;;;;;5089444;28;20384;-82
2022/01/09 07:20:22;;;;;;;8.68;2.95;;;25.80;99.90;;;;;;5089038;28;20380;-81
2022/01/09 07:22:49;;;;;;;10.20;2.95;;;25.80;99.90;;;;;;5087398;28;20833;-76
2022/01/09 07:25:16;;;;;;;11.98;3.05;;;25.70;99.90;;;;;;5089052;28;20732;-80
2022/01/09 07:27:43;;;;;;;11.65;2.83;;;25.70;99.90;;;;;;5089195;28;21266;-80
2022/01/09 07:30:10;;;;;;;12.48;2.60;;;25.60;99.90;;;;;;5088879;28;20392;-84
2022/01/09 07:32:40;;;;;;;10.38;3.00;;;25.60;99.90;;;;;;5088722;28;20380;-81
2022/01/09 07:35:07;;;;;;;11.07;2.75;;;25.50;99.90;;;;;;5089236;28;20391;-84
2022/01/09 07:37:34;;;;;;;10.90;2.50;;;25.40;99.90;;;;;;5088377;28;20397;-79
2022/01/09 07:40:03;;;;;;;10.60;2.65;;;25.40;99.90;;;;;;5088197;28;20405;-84
2022/01/09 07:42:30;;;;;;;10.57;2.63;;;25.40;99.90;;;;;;5100075;28;20783;-76
2022/01/09 07:44:57;;;;;;;6.85;2.10;;;25.40;99.90;;;;;;5090691;28;20393;-78
2022/01/09 07:47:24;;;;;;;9.55;2.47;;;25.40;99.90;;;;;;5091136;28;20380;-85
2022/01/09 07:49:51;;;;;;;8.88;2.30;;;25.50;99.90;;;;;;5088802;28;20373;-81
2022/01/09 07:52:18;;;;;;;8.00;2.63;;;25.50;99.90;;;;;;5094708;28;20368;-79
2022/01/09 07:54:45;;;;;;;9.93;3.80;;;25.50;99.90;;;;;;5088271;28;20493;-84
2022/01/09 07:57:12;;;;;;;10.02;3.30;;;25.50;99.90;;;;;;5088276;28;20889;-83
2022/01/09 07:59:39;;;;;;;8.85;2.50;;;25.50;99.90;;;;;;5088682;28;20400;-82
2022/01/09 08:02:07;;;;;;;9.02;2.50;;;25.50;99.90;;;;;;5088576;28;20433;-80
2022/01/09 08:04:34;;;;;;;7.20;2.65;;;25.40;99.90;;;;;;5093839;28;20462;-77
2022/01/09 08:07:01;;;;;;;9.57;2.58;;;25.30;99.90;;;;;;5109039;28;20427;-79
2022/01/09 08:09:28;;;;;;;7.77;2.23;;;25.30;99.90;;;;;;5109005;27;20866;-83
2022/01/09 08:11:55;;;;;;;8.30;2.40;;;25.10;99.90;;;;;;5101069;28;20396;-84
2022/01/09 08:14:22;;;;;;;6.88;2.10;;;25.00;99.90;;;;;;5088234;28;20456;-81
2022/01/09 08:16:49;;;;;;;8.13;2.38;;;24.80;99.90;;;;;;5088099;28;20931;-79
2022/01/09 08:19:16;;;;;;;8.18;2.40;;;24.70;99.90;;;;;;5088239;28;20427;-76
2022/01/09 08:21:43;;;;;;;8.27;2.38;;;24.60;99.90;;;;;;5086555;28;20739;-79
2022/01/09 08:24:10;;;;;;;8.73;2.38;;;24.50;99.90;;;;;;5088345;28;20456;-83
2022/01/09 08:26:37;;;;;;;6.32;2.22;;;24.50;99.90;;;;;;5088012;28;20392;-76
2022/01/09 08:29:04;;;;;;;8.45;2.30;;;24.50;99.90;;;;;;5087907;28;20401;-89
2022/01/09 08:31:31;;;;;;;7.87;2.30;;;24.50;99.90;;;;;;5088103;28;20470;-84
2022/01/09 08:33:58;;;;;;;8.60;2.40;;;24.50;99.90;;;;;;5088018;28;20449;-85
2022/01/09 08:36:25;;;;;;;10.05;2.60;;;24.40;99.90;;;;;;5087812;28;20879;-86
2022/01/09 08:38:52;;;;;;;8.43;2.28;;;24.50;99.90;;;;;;5087379;28;20769;-84
2022/01/09 08:41:19;;;;;;;8.55;2.40;;;24.50;99.90;;;;;;5087685;28;20372;-84
2022/01/09 08:43:46;;;;;;;8.38;2.30;;;24.50;99.90;;;;;;5087398;28;20894;-84
2022/01/09 08:46:14;;;;;;;8.05;2.42;;;24.40;99.90;;;;;;5087793;28;20395;-83
2022/01/09 08:48:41;;;;;;;8.55;2.15;;;24.50;99.90;;;;;;5087685;28;20400;-85
2022/01/09 08:51:09;;;;;;;8.13;2.33;;;24.50;99.90;;;;;;5087280;28;20453;-83
2022/01/09 08:53:36;;;;;;;7.50;2.17;;;24.50;99.90;;;;;;5087257;28;20876;-79
2022/01/09 08:56:05;;;;;;;8.32;2.40;;;24.50;99.90;;;;;;5086983;28;20886;-76
2022/01/09 08:58:33;;;;;;;9.90;2.50;;;24.40;99.90;;;;;;5087473;28;20426;-84
2022/01/09 09:01:00;;;;;;;9.25;2.33;;;24.40;99.90;;;;;;5086562;28;20396;-83
2022/01/09 09:03:27;;;;;;;7.65;2.30;;;24.40;99.90;;;;;;5090606;28;20455;-78
2022/01/09 09:05:54;;;;;;;9.95;2.47;;;24.40;99.90;;;;;;5086945;28;20394;-85
2022/01/09 09:08:21;;;;;;;7.90;2.40;;;24.30;99.90;;;;;;5087119;28;20749;-77
2022/01/09 09:10:48;;;;;;;8.60;2.53;;;24.30;99.90;;;;;;5086666;28;20395;-79
2022/01/09 09:13:15;;;;;;;13.57;2.55;;;24.20;99.90;;;;;;5086944;28;20388;-76
2022/01/09 09:15:42;;;;;;;9.68;2.47;;;24.20;99.90;;;;;;5085513;28;20871;-82
2022/01/09 09:18:10;;;;;;;10.15;2.40;;;24.20;99.90;;;;;;5087576;28;20392;-76
2022/01/09 09:20:38;;;;;;;7.95;2.22;;;24.10;99.90;;;;;;5086859;28;20428;-80
2022/01/09 09:23:05;;;;;;;8.70;2.40;;;24.10;99.90;;;;;;5086449;28;20372;-80
2022/01/09 09:25:32;;;;;;;6.22;2.20;;;24.10;99.90;;;;;;5102356;28;20389;-77
2022/01/09 09:27:59;;;;;;;8.93;2.60;;;24.10;99.90;;;;;;5097743;28;20372;-78
2022/01/09 09:30:26;;;;;;;7.40;2.20;;;24.10;99.90;;;;;;5085276;28;20400;-79
2022/01/09 09:32:53;;;;;;;9.67;2.53;;;24.10;99.90;;;;;;5086386;28;20379;-86
2022/01/09 09:35:20;;;;;;;10.43;2.40;;;24.10;99.90;;;;;;5086754;28;20442;-80
2022/01/09 09:37:47;;;;;;;7.40;2.40;;;24.00;99.90;;;;;;5086490;28;20416;-83
2022/01/09 09:40:14;;;;;;;8.63;2.47;;;24.00;99.90;;;;;;5086124;28;20477;-76
2022/01/09 09:42:41;;;;;;;9.02;2.30;;;24.00;99.90;;;;;;5086601;28;20376;-84
2022/01/09 09:45:10;;;;;;;9.70;2.53;;;24.00;99.90;;;;;;5086450;28;20484;-80
2022/01/09 09:47:38;;;;;;;10.50;2.58;;;24.00;99.90;;;;;;5086523;28;20376;-79
2022/01/09 09:50:12;;;;;;;11.30;2.60;;;23.90;99.90;;;;;;5085919;28;20372;-80
2022/01/09 09:52:41;;;;;;;12.73;2.50;;;23.90;99.90;;;;;;5085794;28;20844;-86
2022/01/09 09:55:08;;;;;;;9.43;2.60;;;23.90;99.90;;;;;;5086495;28;20427;-87
2022/01/09 09:57:35;;;;;;;9.23;2.50;;;23.90;99.90;;;;;;5086387;28;20385;-87
2022/01/09 10:00:09;;;;;;;14.40;2.70;;;23.90;99.90;;;;;;5086219;28;20441;-87
2022/01/09 10:02:46;;;;;;;13.23;2.90;;;23.80;99.90;;;;;;5084871;28;20388;-83
2022/01/09 10:05:22;;;;;;;10.82;2.70;;;23.80;99.90;;;;;;5085238;28;20376;-82
2022/01/09 10:07:50;;;;;;;9.30;2.38;;;23.80;99.90;;;;;;5085839;28;20379;-79
2022/01/09 10:10:19;;;;;;;10.60;2.80;;;23.90;99.90;;;;;;5085667;28;20376;-82
2022/01/09 10:12:48;;;;;;;11.25;2.80;;;23.80;99.90;;;;;;5085925;28;20429;-85
2022/01/09 10:15:18;;;;;;;11.47;2.80;;;23.90;99.90;;;;;;5085524;28;20380;-76
2022/01/09 10:17:49;;;;;;;12.30;2.97;;;23.80;99.90;;;;;;5085027;28;20419;-77
2022/01/09 10:20:22;;;;;;;12.73;3.17;;;23.80;99.90;;;;;;5085536;28;20396;-79
2022/01/09 10:22:54;;;;;;;13.80;2.85;;;23.80;99.90;;;;;;5073805;28;20574;-79
2022/01/09 10:25:38;;;;;;;12.50;3.35;;;23.80;99.90;;;;;;5085927;28;20902;-86
2022/01/09 10:28:20;;;;;;;11.20;2.70;;;23.80;99.90;;;;;;5073061;28;20366;-85
2022/01/09 10:30:52;;;;;;;14.27;3.10;;;23.70;99.90;;;;;;5086104;28;20476;-78
2022/01/09 10:33:21;;;;;;;11.85;3.00;;;23.60;99.90;;;;;;5085749;28;20404;-84
2022/01/09 10:35:50;;;;;;;10.15;2.80;;;23.50;99.90;;;;;;5086420;28;20424;-86
2022/01/09 10:38:23;;;;;;;13.77;3.00;;;23.50;99.90;;;;;;5088595;28;20400;-86
2022/01/09 10:40:58;;;;;;;11.13;3.00;;;23.50;99.90;;;;;;5089402;28;20391;-84
2022/01/09 10:43:41;;;;;;;10.07;2.70;;;23.50;99.90;;;;;;5089631;28;20381;-84
2022/01/09 10:46:09;;;;;;;10.05;2.85;;;23.40;99.90;;;;;;5089899;28;20384;-82
2022/01/09 10:48:37;;;;;;;10.18;2.65;;;23.40;99.90;;;;;;5090754;28;20416;-79
2022/01/09 10:51:07;;;;;;;8.95;2.80;;;23.40;99.90;;;;;;5090042;28;20770;-86
2022/01/09 10:53:35;;;;;;;10.65;2.80;;;23.40;99.90;;;;;;5092609;28;20418;-84
2022/01/09 10:56:13;;;;;;;11.60;2.92;;;23.30;99.90;;;;;;5104229;28;20389;-85
2022/01/09 10:58:46;;;;;;;10.13;2.63;;;23.30;99.90;;;;;;5089778;28;20392;-85
2022/01/09 11:01:35;;;;;;;9.65;3.10;;;23.30;99.90;;;;;;5089310;28;20368;-87
2022/01/09 11:04:07;;;;;;;12.32;2.80;;;23.30;99.90;;;;;;5089002;28;20494;-83
2022/01/09 11:06:36;;;;;;;13.15;3.03;;;23.20;99.90;;;;;;5085935;28;20384;-87
2022/01/09 11:09:05;;;;;;;10.55;2.88;;;23.20;99.90;;;;;;5083409;28;20390;-87
2022/01/09 11:11:37;;;;;;;12.60;2.90;;;23.20;99.90;;;;;;5089526;28;20875;-84
2022/01/09 11:14:07;;;;;;;12.50;2.90;;;23.10;99.90;;;;;;5089312;28;20459;-87
2022/01/09 11:16:36;;;;;;;10.23;2.80;;;23.20;99.90;;;;;;5089457;28;20388;-87
2022/01/09 11:19:10;;;;;;;10.60;2.73;;;23.20;99.90;;;;;;5089472;28;20401;-85
2022/01/09 11:22:05;;;;;;;11.53;3.13;;;23.20;99.90;;;;;;5069245;28;20381;-85
2022/01/09 11:25:02;;;;;;;11.82;3.10;;;23.20;99.90;;;;;;5083183;28;20487;-86
2022/01/09 11:27:35;;;;;;;13.88;3.60;;;23.20;99.90;;;;;;5089434;28;20774;-84
2022/01/09 11:30:06;;;;;;;12.37;3.17;;;23.20;99.90;;;;;;5088560;28;20395;-86
2022/01/09 11:33:06;;;;;;;14.02;3.08;;;23.10;99.90;;;;;;5089185;28;20363;-86
2022/01/09 11:35:56;;;;;;;15.60;3.30;;;23.00;99.90;;;;;;5068859;28;20389;-85
2022/01/09 11:38:31;;;;;;;13.13;3.22;;;23.10;99.90;;;;;;5076154;28;20453;-86
2022/01/09 11:41:21;;;;;;;9.90;3.00;;;23.10;99.90;;;;;;5089061;28;20756;-86
2022/01/09 11:44:00;;;;;;;10.25;2.90;;;23.00;99.90;;;;;;5088239;28;20373;-85
2022/01/09 11:46:32;;;;;;;9.38;2.80;;;23.00;99.90;;;;;;5088439;28;20388;-86
2022/01/09 11:49:06;;;;;;;10.40;2.70;;;23.00;99.90;;;;;;5087810;28;20465;-86
2022/01/09 11:51:34;;;;;;;10.18;2.97;;;23.00;99.90;;;;;;5088613;28;20376;-86
2022/01/09 11:54:06;;;;;;;8.60;2.58;;;23.00;99.90;;;;;;5088484;28;20868;-86
2022/01/09 11:56:46;;;;;;;7.88;2.83;;;23.00;99.90;;;;;;5088718;28;20381;-82
2022/01/09 11:59:28;;;;;;;10.02;3.13;;;23.00;99.90;;;;;;5088304;28;20411;-82
2022/01/09 12:01:57;;;;;;;12.60;3.60;;;23.00;99.90;;;;;;5088319;28;20384;-86
2022/01/09 12:07:00;;;;;;;12.48;3.25;;;23.00;99.90;;;;;;5088529;28;20369;-85
2022/01/09 12:09:51;;;;;;;11.25;3.28;;;23.00;99.90;;;;;;5088658;28;20373;-85
2022/01/09 12:12:21;;;;;;;9.95;3.10;;;22.90;99.90;;;;;;5088247;28;20467;-83
2022/01/09 12:14:54;;;;;;;11.88;3.25;;;22.90;99.90;;;;;;5088450;28;20402;-85
2022/01/09 12:17:26;;;;;;;14.32;3.28;;;22.90;99.90;;;;;;5088265;28;20950;-86
2022/01/09 12:20:07;;;;;;;11.63;3.10;;;22.90;99.90;;;;;;5088107;28;20412;-86
2022/01/09 12:25:08;;;;;;;14.30;3.20;;;22.70;99.90;;;;;;5088438;28;20439;-85
2022/01/09 12:27:43;;;;;;;12.57;2.97;;;22.80;99.90;;;;;;5088198;28;20365;-86
2022/01/09 12:30:54;;;;;;;11.48;3.10;;;22.80;99.90;;;;;;5087795;28;20372;-85
2022/01/09 12:33:25;;;;;;;10.90;3.00;;;22.80;99.90;;;;;;5087384;28;20455;-80
2022/01/09 12:36:06;;;;;;;11.55;3.10;;;22.80;99.90;;;;;;5087712;28;20398;-84
2022/01/09 12:38:40;;;;;;;10.07;3.50;;;22.80;99.90;;;;;;5085187;28;20399;-82
2022/01/09 12:41:15;;;;;;;12.88;3.40;;;22.80;99.90;;;;;;5067583;28;20797;-84
2022/01/09 12:43:42;;;;;;;16.23;3.90;;;22.70;99.90;;;;;;5067514;28;20358;-85
2022/01/09 12:46:14;;;;;;;14.30;3.67;;;22.70;99.90;;;;;;5067626;28;20959;-84
2022/01/09 12:48:49;;;;;;;11.88;3.35;;;22.70;99.90;;;;;;5067308;28;20915;-85
2022/01/09 12:51:16;;;;;;;15.80;3.70;;;22.60;99.90;;;;;;5068345;28;20388;-83
2022/01/09 12:53:52;;;;;;;12.98;3.70;;;22.70;99.90;;;;;;5067354;28;20395;-86
2022/01/09 12:56:28;;;;;;;13.25;3.92;;;22.60;99.90;;;;;;5067372;28;20427;-85
2022/01/09 12:58:58;;;;;;;13.85;3.95;;;22.60;99.90;;;;;;5066715;28;20434;-84
2022/01/09 13:01:28;;;;;;;14.43;4.15;;;22.60;99.90;;;;;;5066645;28;21082;-85